sensor_id;sensor_type;location;lat;lon;timestamp;P1;durP1;ratioP1;P2;durP2;ratioP2
5650;SDS011;40241;52.684;9.758;2024-01-30T00:00:36;4.80;;;4.20;;
5650;SDS011;40241;52.684;9.758;2024-01-30T00:03:01;6.07;;;4.20;;
5650;SDS011;40241;52.684;9.758;2024-01-30T00:05:27;7.00;;;3.73;;
5650;SDS011;40241;52.684;9.758;2024-01-30T00:07:52;4.40;;;4.00;;
5650;SDS011;40241;52.684;9.758;2024-01-30T00:10:17;5.37;;;4.33;;
5650;SDS011;40241;52.684;9.758;2024-01-30T00:12:43;5.07;;;4.20;;
5650;SDS011;40241;52.684;9.758;2024-01-30T00:15:08;5.37;;;3.93;;
5650;SDS011;40241;52.684;9.758;2024-01-30T00:17:35;5.10;;;4.30;;
5650;SDS011;40241;52.684;9.758;2024-01-30T00:20:02;6.13;;;4.43;;
5650;SDS011;40241;52.684;9.758;2024-01-30T00:22:30;3.93;;;3.30;;
5650;SDS011;40241;52.684;9.758;2024-01-30T00:24:56;5.50;;;3.90;;
5650;SDS011;40241;52.684;9.758;2024-01-30T00:27:21;6.33;;;4.00;;
5650;SDS011;40241;52.684;9.758;2024-01-30T00:29:46;5.30;;;4.27;;
5650;SDS011;40241;52.684;9.758;2024-01-30T00:32:11;4.50;;;3.90;;
5650;SDS011;40241;52.684;9.758;2024-01-30T00:34:37;6.30;;;4.30;;
5650;SDS011;40241;52.684;9.758;2024-01-30T00:37:02;4.90;;;3.87;;
5650;SDS011;40241;52.684;9.758;2024-01-30T00:39:27;7.23;;;4.57;;
5650;SDS011;40241;52.684;9.758;2024-01-30T00:41:53;5.47;;;3.87;;
5650;SDS011;40241;52.684;9.758;2024-01-30T00:44:18;6.77;;;4.37;;
5650;SDS011;40241;52.684;9.758;2024-01-30T00:46:43;5.27;;;4.27;;
5650;SDS011;40241;52.684;9.758;2024-01-30T00:49:10;4.93;;;3.97;;
5650;SDS011;40241;52.684;9.758;2024-01-30T00:51:35;5.20;;;4.27;;
5650;SDS011;40241;52.684;9.758;2024-01-30T00:54:01;5.43;;;4.80;;
5650;SDS011;40241;52.684;9.758;2024-01-30T00:56:27;5.90;;;4.10;;
5650;SDS011;40241;52.684;9.758;2024-01-30T00:58:53;5.17;;;4.40;;
5650;SDS011;40241;52.684;9.758;2024-01-30T01:01:18;4.60;;;4.20;;
5650;SDS011;40241;52.684;9.758;2024-01-30T01:03:44;3.90;;;3.60;;
5650;SDS011;40241;52.684;9.758;2024-01-30T01:06:09;7.17;;;4.50;;
5650;SDS011;40241;52.684;9.758;2024-01-30T01:08:35;4.40;;;4.00;;
5650;SDS011;40241;52.684;9.758;2024-01-30T01:11:01;5.10;;;4.57;;
5650;SDS011;40241;52.684;9.758;2024-01-30T01:13:26;9.93;;;4.00;;
5650;SDS011;40241;52.684;9.758;2024-01-30T01:15:51;5.60;;;4.37;;
5650;SDS011;40241;52.684;9.758;2024-01-30T01:18:17;6.33;;;4.30;;
5650;SDS011;40241;52.684;9.758;2024-01-30T01:20:42;4.23;;;3.83;;
5650;SDS011;40241;52.684;9.758;2024-01-30T01:23:07;3.93;;;3.63;;
5650;SDS011;40241;52.684;9.758;2024-01-30T01:25:32;5.73;;;4.20;;
5650;SDS011;40241;52.684;9.758;2024-01-30T01:27:58;4.47;;;4.00;;
5650;SDS011;40241;52.684;9.758;2024-01-30T01:30:23;4.47;;;3.77;;
5650;SDS011;40241;52.684;9.758;2024-01-30T01:32:50;5.20;;;4.30;;
5650;SDS011;40241;52.684;9.758;2024-01-30T01:35:21;4.90;;;3.77;;
5650;SDS011;40241;52.684;9.758;2024-01-30T01:37:49;5.27;;;3.90;;
5650;SDS011;40241;52.684;9.758;2024-01-30T01:40:19;7.50;;;3.77;;
5650;SDS011;40241;52.684;9.758;2024-01-30T01:42:49;5.13;;;4.10;;
5650;SDS011;40241;52.684;9.758;2024-01-30T01:45:14;10.73;;;4.70;;
5650;SDS011;40241;52.684;9.758;2024-01-30T01:47:40;8.73;;;4.67;;
5650;SDS011;40241;52.684;9.758;2024-01-30T01:50:06;5.00;;;4.50;;
5650;SDS011;40241;52.684;9.758;2024-01-30T01:52:32;4.37;;;4.00;;
5650;SDS011;40241;52.684;9.758;2024-01-30T01:54:58;7.97;;;4.80;;
5650;SDS011;40241;52.684;9.758;2024-01-30T01:57:24;5.77;;;4.30;;
5650;SDS011;40241;52.684;9.758;2024-01-30T01:59:49;4.97;;;4.20;;
5650;SDS011;40241;52.684;9.758;2024-01-30T02:02:15;3.80;;;3.40;;
5650;SDS011;40241;52.684;9.758;2024-01-30T02:04:42;4.40;;;4.00;;
5650;SDS011;40241;52.684;9.758;2024-01-30T02:07:08;4.67;;;4.27;;
5650;SDS011;40241;52.684;9.758;2024-01-30T02:09:33;6.10;;;4.43;;
5650;SDS011;40241;52.684;9.758;2024-01-30T02:11:58;4.07;;;3.67;;
5650;SDS011;40241;52.684;9.758;2024-01-30T02:14:24;5.10;;;4.60;;
5650;SDS011;40241;52.684;9.758;2024-01-30T02:16:49;5.87;;;4.40;;
5650;SDS011;40241;52.684;9.758;2024-01-30T02:19:14;6.33;;;4.50;;
5650;SDS011;40241;52.684;9.758;2024-01-30T02:21:40;6.43;;;4.53;;
5650;SDS011;40241;52.684;9.758;2024-01-30T02:24:05;5.00;;;4.37;;
5650;SDS011;40241;52.684;9.758;2024-01-30T02:26:31;7.03;;;4.20;;
5650;SDS011;40241;52.684;9.758;2024-01-30T02:28:56;5.67;;;3.90;;
5650;SDS011;40241;52.684;9.758;2024-01-30T02:31:21;5.27;;;4.07;;
5650;SDS011;40241;52.684;9.758;2024-01-30T02:33:46;4.73;;;4.20;;
5650;SDS011;40241;52.684;9.758;2024-01-30T02:36:12;7.63;;;4.70;;
5650;SDS011;40241;52.684;9.758;2024-01-30T02:38:37;4.43;;;4.03;;
5650;SDS011;40241;52.684;9.758;2024-01-30T02:41:02;4.97;;;4.20;;
5650;SDS011;40241;52.684;9.758;2024-01-30T02:43:28;5.37;;;4.57;;
5650;SDS011;40241;52.684;9.758;2024-01-30T02:45:53;5.50;;;4.00;;
5650;SDS011;40241;52.684;9.758;2024-01-30T02:48:18;5.27;;;4.77;;
5650;SDS011;40241;52.684;9.758;2024-01-30T02:50:44;5.23;;;4.70;;
5650;SDS011;40241;52.684;9.758;2024-01-30T02:53:09;5.00;;;4.30;;
5650;SDS011;40241;52.684;9.758;2024-01-30T02:55:34;5.50;;;4.13;;
5650;SDS011;40241;52.684;9.758;2024-01-30T02:58:00;7.23;;;5.07;;
5650;SDS011;40241;52.684;9.758;2024-01-30T03:00:25;5.10;;;4.50;;
5650;SDS011;40241;52.684;9.758;2024-01-30T03:02:50;5.03;;;4.53;;
5650;SDS011;40241;52.684;9.758;2024-01-30T03:05:16;6.10;;;4.10;;
5650;SDS011;40241;52.684;9.758;2024-01-30T03:07:41;3.87;;;3.57;;
5650;SDS011;40241;52.684;9.758;2024-01-30T03:10:06;7.17;;;4.57;;
5650;SDS011;40241;52.684;9.758;2024-01-30T03:12:32;5.93;;;4.93;;
5650;SDS011;40241;52.684;9.758;2024-01-30T03:14:58;5.70;;;4.40;;
5650;SDS011;40241;52.684;9.758;2024-01-30T03:17:23;4.70;;;4.20;;
5650;SDS011;40241;52.684;9.758;2024-01-30T03:19:49;5.30;;;4.47;;
5650;SDS011;40241;52.684;9.758;2024-01-30T03:22:15;5.80;;;4.57;;
5650;SDS011;40241;52.684;9.758;2024-01-30T03:24:40;7.33;;;4.70;;
5650;SDS011;40241;52.684;9.758;2024-01-30T03:27:05;5.63;;;4.20;;
5650;SDS011;40241;52.684;9.758;2024-01-30T03:29:31;7.00;;;5.63;;
5650;SDS011;40241;52.684;9.758;2024-01-30T03:31:56;8.43;;;5.00;;
5650;SDS011;40241;52.684;9.758;2024-01-30T03:34:21;4.90;;;3.93;;
5650;SDS011;40241;52.684;9.758;2024-01-30T03:36:47;4.80;;;4.30;;
5650;SDS011;40241;52.684;9.758;2024-01-30T03:39:12;6.87;;;4.90;;
5650;SDS011;40241;52.684;9.758;2024-01-30T03:41:37;5.10;;;4.60;;
5650;SDS011;40241;52.684;9.758;2024-01-30T03:44:03;4.77;;;4.23;;
5650;SDS011;40241;52.684;9.758;2024-01-30T03:46:28;5.90;;;4.73;;
5650;SDS011;40241;52.684;9.758;2024-01-30T03:48:53;5.73;;;4.93;;
5650;SDS011;40241;52.684;9.758;2024-01-30T03:51:19;6.80;;;5.30;;
5650;SDS011;40241;52.684;9.758;2024-01-30T03:53:44;4.70;;;4.17;;
5650;SDS011;40241;52.684;9.758;2024-01-30T03:56:11;8.63;;;4.80;;
5650;SDS011;40241;52.684;9.758;2024-01-30T03:58:38;7.37;;;5.27;;
5650;SDS011;40241;52.684;9.758;2024-01-30T04:01:04;6.40;;;4.13;;
5650;SDS011;40241;52.684;9.758;2024-01-30T04:03:29;4.73;;;4.13;;
5650;SDS011;40241;52.684;9.758;2024-01-30T04:05:54;4.60;;;4.20;;
5650;SDS011;40241;52.684;9.758;2024-01-30T04:08:20;5.30;;;4.50;;
5650;SDS011;40241;52.684;9.758;2024-01-30T04:10:46;5.03;;;4.53;;
5650;SDS011;40241;52.684;9.758;2024-01-30T04:13:11;6.23;;;4.80;;
5650;SDS011;40241;52.684;9.758;2024-01-30T04:15:36;6.40;;;5.00;;
5650;SDS011;40241;52.684;9.758;2024-01-30T04:18:02;5.57;;;4.83;;
5650;SDS011;40241;52.684;9.758;2024-01-30T04:20:27;6.00;;;4.90;;
5650;SDS011;40241;52.684;9.758;2024-01-30T04:22:54;5.40;;;4.63;;
5650;SDS011;40241;52.684;9.758;2024-01-30T04:25:19;5.97;;;5.20;;
5650;SDS011;40241;52.684;9.758;2024-01-30T04:27:44;5.73;;;4.90;;
5650;SDS011;40241;52.684;9.758;2024-01-30T04:30:10;6.60;;;4.87;;
5650;SDS011;40241;52.684;9.758;2024-01-30T04:32:36;6.13;;;4.70;;
5650;SDS011;40241;52.684;9.758;2024-01-30T04:35:02;6.07;;;5.47;;
5650;SDS011;40241;52.684;9.758;2024-01-30T04:37:28;6.10;;;4.80;;
5650;SDS011;40241;52.684;9.758;2024-01-30T04:39:53;5.53;;;4.80;;
5650;SDS011;40241;52.684;9.758;2024-01-30T04:42:19;5.73;;;4.80;;
5650;SDS011;40241;52.684;9.758;2024-01-30T04:44:44;5.00;;;4.20;;
5650;SDS011;40241;52.684;9.758;2024-01-30T04:47:10;6.07;;;4.77;;
5650;SDS011;40241;52.684;9.758;2024-01-30T04:49:37;7.83;;;4.57;;
5650;SDS011;40241;52.684;9.758;2024-01-30T04:52:04;5.47;;;4.90;;
5650;SDS011;40241;52.684;9.758;2024-01-30T04:54:29;6.70;;;5.30;;
5650;SDS011;40241;52.684;9.758;2024-01-30T04:56:54;6.90;;;4.77;;
5650;SDS011;40241;52.684;9.758;2024-01-30T04:59:20;6.07;;;5.47;;
5650;SDS011;40241;52.684;9.758;2024-01-30T05:01:45;4.70;;;4.30;;
5650;SDS011;40241;52.684;9.758;2024-01-30T05:04:11;5.73;;;4.73;;
5650;SDS011;40241;52.684;9.758;2024-01-30T05:06:36;5.33;;;4.83;;
5650;SDS011;40241;52.684;9.758;2024-01-30T05:09:02;7.40;;;5.00;;
5650;SDS011;40241;52.684;9.758;2024-01-30T05:11:29;5.53;;;4.40;;
5650;SDS011;40241;52.684;9.758;2024-01-30T05:13:54;5.20;;;4.57;;
5650;SDS011;40241;52.684;9.758;2024-01-30T05:16:20;7.83;;;5.33;;
5650;SDS011;40241;52.684;9.758;2024-01-30T05:18:45;8.00;;;4.97;;
5650;SDS011;40241;52.684;9.758;2024-01-30T05:21:10;6.43;;;4.83;;
5650;SDS011;40241;52.684;9.758;2024-01-30T05:23:36;5.90;;;4.83;;
5650;SDS011;40241;52.684;9.758;2024-01-30T05:26:01;7.07;;;4.90;;
5650;SDS011;40241;52.684;9.758;2024-01-30T05:28:27;6.30;;;4.70;;
5650;SDS011;40241;52.684;9.758;2024-01-30T05:30:54;5.60;;;4.73;;
5650;SDS011;40241;52.684;9.758;2024-01-30T05:33:19;7.50;;;5.17;;
5650;SDS011;40241;52.684;9.758;2024-01-30T05:35:44;5.70;;;4.90;;
5650;SDS011;40241;52.684;9.758;2024-01-30T05:38:11;12.97;;;5.70;;
5650;SDS011;40241;52.684;9.758;2024-01-30T05:40:36;7.23;;;5.53;;
5650;SDS011;40241;52.684;9.758;2024-01-30T05:43:01;6.47;;;4.77;;
5650;SDS011;40241;52.684;9.758;2024-01-30T05:45:27;6.23;;;5.33;;
5650;SDS011;40241;52.684;9.758;2024-01-30T05:47:53;5.60;;;5.10;;
5650;SDS011;40241;52.684;9.758;2024-01-30T05:50:19;5.70;;;5.10;;
5650;SDS011;40241;52.684;9.758;2024-01-30T05:52:44;6.40;;;5.47;;
5650;SDS011;40241;52.684;9.758;2024-01-30T05:55:10;6.60;;;5.33;;
5650;SDS011;40241;52.684;9.758;2024-01-30T05:57:36;7.50;;;5.50;;
5650;SDS011;40241;52.684;9.758;2024-01-30T06:00:02;8.73;;;6.13;;
5650;SDS011;40241;52.684;9.758;2024-01-30T06:02:28;7.60;;;6.00;;
5650;SDS011;40241;52.684;9.758;2024-01-30T06:04:54;6.47;;;5.67;;
5650;SDS011;40241;52.684;9.758;2024-01-30T06:07:19;7.50;;;6.37;;
5650;SDS011;40241;52.684;9.758;2024-01-30T06:09:44;7.00;;;5.60;;
5650;SDS011;40241;52.684;9.758;2024-01-30T06:12:11;9.93;;;5.93;;
5650;SDS011;40241;52.684;9.758;2024-01-30T06:14:37;7.50;;;6.33;;
5650;SDS011;40241;52.684;9.758;2024-01-30T06:17:02;5.70;;;5.10;;
5650;SDS011;40241;52.684;9.758;2024-01-30T06:19:28;5.70;;;5.20;;
5650;SDS011;40241;52.684;9.758;2024-01-30T06:21:53;8.33;;;5.77;;
5650;SDS011;40241;52.684;9.758;2024-01-30T06:24:19;8.37;;;5.80;;
5650;SDS011;40241;52.684;9.758;2024-01-30T06:26:44;6.77;;;5.60;;
5650;SDS011;40241;52.684;9.758;2024-01-30T06:29:09;6.40;;;5.47;;
5650;SDS011;40241;52.684;9.758;2024-01-30T06:31:41;7.90;;;5.97;;
5650;SDS011;40241;52.684;9.758;2024-01-30T06:34:07;5.90;;;5.03;;
5650;SDS011;40241;52.684;9.758;2024-01-30T06:36:32;7.70;;;5.53;;
5650;SDS011;40241;52.684;9.758;2024-01-30T06:38:58;6.83;;;5.50;;
5650;SDS011;40241;52.684;9.758;2024-01-30T06:41:23;7.00;;;6.03;;
5650;SDS011;40241;52.684;9.758;2024-01-30T06:43:49;9.10;;;5.93;;
5650;SDS011;40241;52.684;9.758;2024-01-30T06:46:14;6.20;;;5.60;;
5650;SDS011;40241;52.684;9.758;2024-01-30T06:48:40;9.43;;;6.47;;
5650;SDS011;40241;52.684;9.758;2024-01-30T06:51:05;7.93;;;6.47;;
5650;SDS011;40241;52.684;9.758;2024-01-30T06:53:31;8.70;;;5.80;;
5650;SDS011;40241;52.684;9.758;2024-01-30T06:55:56;6.40;;;5.17;;
5650;SDS011;40241;52.684;9.758;2024-01-30T06:58:22;6.60;;;5.57;;
5650;SDS011;40241;52.684;9.758;2024-01-30T07:00:47;8.40;;;5.93;;
5650;SDS011;40241;52.684;9.758;2024-01-30T07:03:13;6.00;;;5.37;;
5650;SDS011;40241;52.684;9.758;2024-01-30T07:05:38;5.83;;;5.23;;
5650;SDS011;40241;52.684;9.758;2024-01-30T07:08:03;6.90;;;5.90;;
5650;SDS011;40241;52.684;9.758;2024-01-30T07:10:29;6.83;;;5.07;;
5650;SDS011;40241;52.684;9.758;2024-01-30T07:12:54;5.77;;;5.13;;
5650;SDS011;40241;52.684;9.758;2024-01-30T07:15:19;9.50;;;6.37;;
5650;SDS011;40241;52.684;9.758;2024-01-30T07:17:45;6.33;;;5.20;;
5650;SDS011;40241;52.684;9.758;2024-01-30T07:20:11;6.80;;;5.27;;
5650;SDS011;40241;52.684;9.758;2024-01-30T07:22:36;7.60;;;6.00;;
5650;SDS011;40241;52.684;9.758;2024-01-30T07:25:02;5.90;;;5.03;;
5650;SDS011;40241;52.684;9.758;2024-01-30T07:27:27;8.27;;;5.57;;
5650;SDS011;40241;52.684;9.758;2024-01-30T07:29:53;6.53;;;5.47;;
5650;SDS011;40241;52.684;9.758;2024-01-30T07:32:18;7.00;;;5.77;;
5650;SDS011;40241;52.684;9.758;2024-01-30T07:34:43;9.53;;;6.20;;
5650;SDS011;40241;52.684;9.758;2024-01-30T07:37:09;7.03;;;6.03;;
5650;SDS011;40241;52.684;9.758;2024-01-30T07:39:35;8.13;;;5.07;;
5650;SDS011;40241;52.684;9.758;2024-01-30T07:42:01;6.53;;;5.13;;
5650;SDS011;40241;52.684;9.758;2024-01-30T07:44:26;5.83;;;5.23;;
5650;SDS011;40241;52.684;9.758;2024-01-30T07:46:51;6.50;;;5.50;;
5650;SDS011;40241;52.684;9.758;2024-01-30T07:49:17;6.27;;;5.23;;
5650;SDS011;40241;52.684;9.758;2024-01-30T07:51:42;7.07;;;5.37;;
5650;SDS011;40241;52.684;9.758;2024-01-30T07:54:08;7.20;;;4.87;;
5650;SDS011;40241;52.684;9.758;2024-01-30T08:03:24;7.80;;;4.90;;
5650;SDS011;40241;52.684;9.758;2024-01-30T08:05:49;6.07;;;5.00;;
5650;SDS011;40241;52.684;9.758;2024-01-30T08:08:15;9.00;;;5.43;;
5650;SDS011;40241;52.684;9.758;2024-01-30T08:10:40;6.80;;;5.50;;
5650;SDS011;40241;52.684;9.758;2024-01-30T08:13:05;5.47;;;4.63;;
5650;SDS011;40241;52.684;9.758;2024-01-30T08:15:31;7.93;;;5.47;;
5650;SDS011;40241;52.684;9.758;2024-01-30T08:17:56;7.30;;;5.57;;
5650;SDS011;40241;52.684;9.758;2024-01-30T08:20:24;6.47;;;5.50;;
5650;SDS011;40241;52.684;9.758;2024-01-30T08:22:49;7.80;;;4.90;;
5650;SDS011;40241;52.684;9.758;2024-01-30T08:25:15;7.70;;;5.10;;
5650;SDS011;40241;52.684;9.758;2024-01-30T08:27:40;7.70;;;5.20;;
5650;SDS011;40241;52.684;9.758;2024-01-30T08:30:06;7.40;;;5.70;;
5650;SDS011;40241;52.684;9.758;2024-01-30T08:32:32;6.27;;;5.13;;
5650;SDS011;40241;52.684;9.758;2024-01-30T08:34:57;8.30;;;5.33;;
5650;SDS011;40241;52.684;9.758;2024-01-30T08:37:23;6.97;;;5.47;;
5650;SDS011;40241;52.684;9.758;2024-01-30T08:39:48;7.00;;;5.30;;
5650;SDS011;40241;52.684;9.758;2024-01-30T08:42:13;9.47;;;5.57;;
5650;SDS011;40241;52.684;9.758;2024-01-30T08:44:39;6.10;;;5.13;;
5650;SDS011;40241;52.684;9.758;2024-01-30T08:47:04;7.57;;;4.90;;
5650;SDS011;40241;52.684;9.758;2024-01-30T08:49:30;5.00;;;4.47;;
5650;SDS011;40241;52.684;9.758;2024-01-30T08:51:56;9.90;;;4.60;;
5650;SDS011;40241;52.684;9.758;2024-01-30T08:54:21;5.70;;;4.70;;
5650;SDS011;40241;52.684;9.758;2024-01-30T08:56:47;7.00;;;5.07;;
5650;SDS011;40241;52.684;9.758;2024-01-30T08:59:13;5.57;;;4.83;;
5650;SDS011;40241;52.684;9.758;2024-01-30T09:01:38;6.57;;;5.23;;
5650;SDS011;40241;52.684;9.758;2024-01-30T09:04:04;7.30;;;5.83;;
5650;SDS011;40241;52.684;9.758;2024-01-30T09:06:29;8.33;;;5.60;;
5650;SDS011;40241;52.684;9.758;2024-01-30T09:08:54;8.27;;;6.17;;
5650;SDS011;40241;52.684;9.758;2024-01-30T09:11:20;5.93;;;4.90;;
5650;SDS011;40241;52.684;9.758;2024-01-30T09:13:45;5.93;;;5.03;;
5650;SDS011;40241;52.684;9.758;2024-01-30T09:16:10;6.57;;;5.57;;
5650;SDS011;40241;52.684;9.758;2024-01-30T09:18:36;7.57;;;5.60;;
5650;SDS011;40241;52.684;9.758;2024-01-30T09:21:01;6.43;;;5.67;;
5650;SDS011;40241;52.684;9.758;2024-01-30T09:23:27;5.97;;;5.07;;
5650;SDS011;40241;52.684;9.758;2024-01-30T09:25:52;7.70;;;5.00;;
5650;SDS011;40241;52.684;9.758;2024-01-30T09:28:18;6.87;;;5.30;;
5650;SDS011;40241;52.684;9.758;2024-01-30T09:30:43;9.13;;;5.47;;
5650;SDS011;40241;52.684;9.758;2024-01-30T09:33:08;7.57;;;6.10;;
5650;SDS011;40241;52.684;9.758;2024-01-30T09:35:34;5.93;;;5.10;;
5650;SDS011;40241;52.684;9.758;2024-01-30T09:38:01;8.27;;;6.07;;
5650;SDS011;40241;52.684;9.758;2024-01-30T09:40:26;7.40;;;5.10;;
5650;SDS011;40241;52.684;9.758;2024-01-30T09:42:52;6.63;;;5.20;;
5650;SDS011;40241;52.684;9.758;2024-01-30T09:45:21;6.57;;;5.90;;
5650;SDS011;40241;52.684;9.758;2024-01-30T09:47:49;5.80;;;5.20;;
5650;SDS011;40241;52.684;9.758;2024-01-30T09:50:15;9.77;;;5.77;;
5650;SDS011;40241;52.684;9.758;2024-01-30T09:52:42;7.20;;;5.57;;
5650;SDS011;40241;52.684;9.758;2024-01-30T09:55:09;5.43;;;4.87;;
5650;SDS011;40241;52.684;9.758;2024-01-30T09:57:34;7.23;;;5.37;;
5650;SDS011;40241;52.684;9.758;2024-01-30T10:00:00;4.80;;;4.33;;
5650;SDS011;40241;52.684;9.758;2024-01-30T10:02:26;6.30;;;5.40;;
5650;SDS011;40241;52.684;9.758;2024-01-30T10:04:52;5.23;;;4.73;;
5650;SDS011;40241;52.684;9.758;2024-01-30T10:07:18;6.83;;;4.83;;
5650;SDS011;40241;52.684;9.758;2024-01-30T10:09:44;5.87;;;4.93;;
5650;SDS011;40241;52.684;9.758;2024-01-30T10:12:10;6.27;;;5.57;;
5650;SDS011;40241;52.684;9.758;2024-01-30T10:14:38;8.70;;;5.00;;
5650;SDS011;40241;52.684;9.758;2024-01-30T10:17:04;5.70;;;4.90;;
5650;SDS011;40241;52.684;9.758;2024-01-30T10:19:30;9.27;;;6.40;;
5650;SDS011;40241;52.684;9.758;2024-01-30T10:21:56;5.97;;;5.37;;
5650;SDS011;40241;52.684;9.758;2024-01-30T10:24:24;7.33;;;5.10;;
5650;SDS011;40241;52.684;9.758;2024-01-30T10:26:50;10.13;;;5.97;;
5650;SDS011;40241;52.684;9.758;2024-01-30T10:29:16;7.17;;;5.87;;
5650;SDS011;40241;52.684;9.758;2024-01-30T10:31:42;8.30;;;6.40;;
5650;SDS011;40241;52.684;9.758;2024-01-30T10:34:07;6.30;;;5.50;;
5650;SDS011;40241;52.684;9.758;2024-01-30T10:36:33;8.67;;;5.87;;
5650;SDS011;40241;52.684;9.758;2024-01-30T10:39:08;7.90;;;5.07;;
5650;SDS011;40241;52.684;9.758;2024-01-30T10:41:37;5.80;;;5.20;;
5650;SDS011;40241;52.684;9.758;2024-01-30T10:44:09;7.13;;;5.70;;
5650;SDS011;40241;52.684;9.758;2024-01-30T10:46:35;6.67;;;5.50;;
5650;SDS011;40241;52.684;9.758;2024-01-30T10:49:03;6.73;;;5.63;;
5650;SDS011;40241;52.684;9.758;2024-01-30T10:51:29;6.37;;;5.43;;
5650;SDS011;40241;52.684;9.758;2024-01-30T10:53:56;6.30;;;5.20;;
5650;SDS011;40241;52.684;9.758;2024-01-30T10:56:22;7.50;;;4.97;;
5650;SDS011;40241;52.684;9.758;2024-01-30T10:58:49;7.50;;;5.60;;
5650;SDS011;40241;52.684;9.758;2024-01-30T11:01:16;6.87;;;5.47;;
5650;SDS011;40241;52.684;9.758;2024-01-30T11:03:42;7.03;;;5.13;;
5650;SDS011;40241;52.684;9.758;2024-01-30T11:06:10;5.80;;;5.23;;
5650;SDS011;40241;52.684;9.758;2024-01-30T11:08:39;5.83;;;4.90;;
5650;SDS011;40241;52.684;9.758;2024-01-30T11:11:07;4.87;;;4.43;;
5650;SDS011;40241;52.684;9.758;2024-01-30T11:13:34;5.63;;;4.70;;
5650;SDS011;40241;52.684;9.758;2024-01-30T11:16:02;7.70;;;5.60;;
5650;SDS011;40241;52.684;9.758;2024-01-30T11:18:29;9.50;;;4.93;;
5650;SDS011;40241;52.684;9.758;2024-01-30T11:20:56;5.33;;;4.83;;
5650;SDS011;40241;52.684;9.758;2024-01-30T11:23:23;5.50;;;4.93;;
5650;SDS011;40241;52.684;9.758;2024-01-30T11:25:48;8.63;;;5.33;;
5650;SDS011;40241;52.684;9.758;2024-01-30T11:28:14;7.13;;;5.70;;
5650;SDS011;40241;52.684;9.758;2024-01-30T11:30:41;8.63;;;5.67;;
5650;SDS011;40241;52.684;9.758;2024-01-30T11:33:07;7.37;;;5.73;;
5650;SDS011;40241;52.684;9.758;2024-01-30T11:35:37;8.57;;;5.80;;
5650;SDS011;40241;52.684;9.758;2024-01-30T11:38:04;7.70;;;5.10;;
5650;SDS011;40241;52.684;9.758;2024-01-30T11:40:31;9.67;;;6.50;;
5650;SDS011;40241;52.684;9.758;2024-01-30T11:42:59;9.07;;;5.43;;
5650;SDS011;40241;52.684;9.758;2024-01-30T11:45:25;9.63;;;5.30;;
5650;SDS011;40241;52.684;9.758;2024-01-30T11:47:51;8.30;;;5.53;;
5650;SDS011;40241;52.684;9.758;2024-01-30T11:50:17;6.60;;;5.10;;
5650;SDS011;40241;52.684;9.758;2024-01-30T11:52:43;6.73;;;5.20;;
5650;SDS011;40241;52.684;9.758;2024-01-30T11:55:09;12.10;;;5.50;;
5650;SDS011;40241;52.684;9.758;2024-01-30T11:57:35;8.00;;;5.70;;
5650;SDS011;40241;52.684;9.758;2024-01-30T12:00:02;6.97;;;5.73;;
5650;SDS011;40241;52.684;9.758;2024-01-30T12:02:38;7.47;;;5.83;;
5650;SDS011;40241;52.684;9.758;2024-01-30T12:05:04;6.33;;;5.60;;
5650;SDS011;40241;52.684;9.758;2024-01-30T12:07:30;5.70;;;5.20;;
5650;SDS011;40241;52.684;9.758;2024-01-30T12:09:56;6.27;;;4.83;;
5650;SDS011;40241;52.684;9.758;2024-01-30T12:12:25;8.23;;;6.00;;
5650;SDS011;40241;52.684;9.758;2024-01-30T12:14:51;6.67;;;5.20;;
5650;SDS011;40241;52.684;9.758;2024-01-30T12:17:30;6.27;;;5.63;;
5650;SDS011;40241;52.684;9.758;2024-01-30T12:20:12;7.80;;;5.80;;
5650;SDS011;40241;52.684;9.758;2024-01-30T12:25:09;7.80;;;5.73;;
5650;SDS011;40241;52.684;9.758;2024-01-30T12:27:45;6.67;;;4.93;;
5650;SDS011;40241;52.684;9.758;2024-01-30T12:30:15;5.63;;;4.80;;
5650;SDS011;40241;52.684;9.758;2024-01-30T12:32:45;5.70;;;5.13;;
5650;SDS011;40241;52.684;9.758;2024-01-30T12:35:14;5.80;;;5.20;;
5650;SDS011;40241;52.684;9.758;2024-01-30T12:37:42;9.73;;;6.03;;
5650;SDS011;40241;52.684;9.758;2024-01-30T12:40:08;8.40;;;5.30;;
5650;SDS011;40241;52.684;9.758;2024-01-30T12:42:35;7.23;;;5.40;;
5650;SDS011;40241;52.684;9.758;2024-01-30T12:45:03;4.90;;;4.40;;
5650;SDS011;40241;52.684;9.758;2024-01-30T12:47:29;8.80;;;4.67;;
5650;SDS011;40241;52.684;9.758;2024-01-30T12:49:54;5.70;;;4.17;;
5650;SDS011;40241;52.684;9.758;2024-01-30T12:52:20;4.30;;;4.00;;
5650;SDS011;40241;52.684;9.758;2024-01-30T12:54:46;9.13;;;4.60;;
5650;SDS011;40241;52.684;9.758;2024-01-30T12:57:12;4.33;;;3.93;;
5650;SDS011;40241;52.684;9.758;2024-01-30T12:59:37;5.00;;;4.60;;
5650;SDS011;40241;52.684;9.758;2024-01-30T13:02:04;6.50;;;4.83;;
5650;SDS011;40241;52.684;9.758;2024-01-30T13:04:29;5.60;;;4.10;;
5650;SDS011;40241;52.684;9.758;2024-01-30T13:06:54;4.73;;;4.30;;
5650;SDS011;40241;52.684;9.758;2024-01-30T13:09:20;3.93;;;3.53;;
5650;SDS011;40241;52.684;9.758;2024-01-30T13:11:46;5.93;;;4.70;;
5650;SDS011;40241;52.684;9.758;2024-01-30T13:14:11;6.83;;;4.40;;
5650;SDS011;40241;52.684;9.758;2024-01-30T13:16:37;4.77;;;3.93;;
5650;SDS011;40241;52.684;9.758;2024-01-30T13:19:02;6.53;;;4.80;;
5650;SDS011;40241;52.684;9.758;2024-01-30T13:21:28;4.20;;;3.80;;
5650;SDS011;40241;52.684;9.758;2024-01-30T13:23:54;6.77;;;4.30;;
5650;SDS011;40241;52.684;9.758;2024-01-30T13:26:20;4.30;;;3.90;;
5650;SDS011;40241;52.684;9.758;2024-01-30T13:28:46;6.60;;;3.90;;
5650;SDS011;40241;52.684;9.758;2024-01-30T13:31:12;4.80;;;4.40;;
5650;SDS011;40241;52.684;9.758;2024-01-30T13:33:39;4.40;;;3.90;;
5650;SDS011;40241;52.684;9.758;2024-01-30T13:36:05;4.20;;;3.80;;
5650;SDS011;40241;52.684;9.758;2024-01-30T13:38:31;8.30;;;4.73;;
5650;SDS011;40241;52.684;9.758;2024-01-30T13:40:57;5.23;;;3.87;;
5650;SDS011;40241;52.684;9.758;2024-01-30T13:43:22;3.97;;;3.67;;
5650;SDS011;40241;52.684;9.758;2024-01-30T13:45:47;4.63;;;4.17;;
5650;SDS011;40241;52.684;9.758;2024-01-30T13:48:13;4.07;;;3.70;;
5650;SDS011;40241;52.684;9.758;2024-01-30T13:50:38;6.17;;;4.23;;
5650;SDS011;40241;52.684;9.758;2024-01-30T13:53:03;6.07;;;4.30;;
5650;SDS011;40241;52.684;9.758;2024-01-30T13:55:29;4.67;;;3.50;;
5650;SDS011;40241;52.684;9.758;2024-01-30T13:57:55;4.07;;;3.70;;
5650;SDS011;40241;52.684;9.758;2024-01-30T14:00:21;4.90;;;3.87;;
5650;SDS011;40241;52.684;9.758;2024-01-30T14:02:49;4.60;;;4.20;;
5650;SDS011;40241;52.684;9.758;2024-01-30T14:05:15;5.30;;;3.87;;
5650;SDS011;40241;52.684;9.758;2024-01-30T14:07:40;4.87;;;3.80;;
5650;SDS011;40241;52.684;9.758;2024-01-30T14:10:09;5.60;;;4.10;;
5650;SDS011;40241;52.684;9.758;2024-01-30T14:12:36;3.93;;;3.50;;
5650;SDS011;40241;52.684;9.758;2024-01-30T14:15:01;4.30;;;3.87;;
5650;SDS011;40241;52.684;9.758;2024-01-30T14:17:27;6.97;;;4.27;;
5650;SDS011;40241;52.684;9.758;2024-01-30T14:19:52;6.40;;;4.13;;
5650;SDS011;40241;52.684;9.758;2024-01-30T14:22:17;4.30;;;3.70;;
5650;SDS011;40241;52.684;9.758;2024-01-30T14:24:43;4.20;;;3.80;;
5650;SDS011;40241;52.684;9.758;2024-01-30T14:27:08;4.73;;;4.20;;
5650;SDS011;40241;52.684;9.758;2024-01-30T14:29:35;4.40;;;3.83;;
5650;SDS011;40241;52.684;9.758;2024-01-30T14:32:00;5.93;;;3.80;;
5650;SDS011;40241;52.684;9.758;2024-01-30T14:34:26;3.50;;;3.20;;
5650;SDS011;40241;52.684;9.758;2024-01-30T14:36:52;4.60;;;3.30;;
5650;SDS011;40241;52.684;9.758;2024-01-30T14:39:18;4.73;;;3.10;;
5650;SDS011;40241;52.684;9.758;2024-01-30T14:41:43;7.53;;;3.80;;
5650;SDS011;40241;52.684;9.758;2024-01-30T14:44:09;7.43;;;4.40;;
5650;SDS011;40241;52.684;9.758;2024-01-30T14:46:35;5.63;;;3.63;;
5650;SDS011;40241;52.684;9.758;2024-01-30T14:49:01;4.60;;;4.20;;
5650;SDS011;40241;52.684;9.758;2024-01-30T14:51:30;4.97;;;3.43;;
5650;SDS011;40241;52.684;9.758;2024-01-30T14:53:56;4.40;;;4.00;;
5650;SDS011;40241;52.684;9.758;2024-01-30T14:56:21;7.10;;;4.50;;
5650;SDS011;40241;52.684;9.758;2024-01-30T14:58:46;5.07;;;4.07;;
5650;SDS011;40241;52.684;9.758;2024-01-30T15:01:12;4.40;;;3.97;;